Andalusia, Alabama
Current Conditions -  °F | °C
As of 2:56 PM on Thursday 23 Oct 2014 (Local Time) from K79J Reporting Station
Clear Clear  
Wind Chill: 79°   Ceiling: Unl
Heat Index: 79°   Visibility: 10mi
Dew Point: 41°   Wind: 8mph
Humidity: 26%   Direction: 40°NE
Pressure: 30.03"   Gusts: NA
Location:  31.32°N, 86.49°W
Report Text: K79J 231956Z AUTO 04007KT 10SM CLR 26/05 A3003 RMK AO2 SLP166 T02610050
Loading
Personal Weather Stations






























Interactive Weather Map
Tropical Storm Tracking
New forecast layout! Learn more

10-Day Weather Forecast

Advertisements
Track Severe Weather on mobile